Time;durP1;ratioP1;P1;durP2;ratioP2;P2;SDS_P1;SDS_P2;PMS_P1;PMS_P2;Temp;Humidity;BMP_temperature;BMP_pressure;BME280_temperature;BME280_humidity;BME280_pressure;Samples;Min_cycle;Max_cycle;Signal;HPM_P1;HPM_P2
2021/12/24 00:01:16;;;;;;;30.27;21.43;;;8.80;99.90;;;;;;5069515;28;20211;-79
2021/12/24 00:03:42;;;;;;;28.13;19.90;;;8.90;99.90;;;;;;5053001;28;20178;-79
2021/12/24 00:06:14;;;;;;;26.07;19.73;;;8.90;99.90;;;;;;5050706;28;20166;-81
2021/12/24 00:09:22;;;;;;;26.87;19.40;;;9.10;99.90;;;;;;5053694;28;20178;-80
2021/12/24 00:11:51;;;;;;;31.97;20.23;;;9.00;99.90;;;;;;5048604;28;20172;-89
2021/12/24 00:14:21;;;;;;;24.80;18.97;;;9.00;99.90;;;;;;5066699;28;20194;-88
2021/12/24 00:17:04;;;;;;;28.47;20.07;;;8.90;99.90;;;;;;5054080;28;20206;-80
2021/12/24 00:36:38;;;;;;;25.07;19.30;;;9.10;99.90;;;;;;5073113;28;20239;-82
2021/12/24 00:39:04;;;;;;;24.63;18.50;;;9.10;99.90;;;;;;5046522;28;20178;-80
2021/12/24 00:41:33;;;;;;;27.77;19.07;;;9.10;99.90;;;;;;5042443;28;20254;-81
2021/12/24 00:44:02;;;;;;;25.47;18.90;;;9.10;99.90;;;;;;5044592;28;20173;-81
2021/12/24 00:46:27;;;;;;;24.70;18.30;;;9.10;99.90;;;;;;5045700;28;20165;-82
2021/12/24 00:48:55;;;;;;;26.60;18.90;;;9.10;99.90;;;;;;5039034;28;20531;-80
2021/12/24 00:51:32;;;;;;;26.87;18.90;;;9.20;99.90;;;;;;5057555;28;20192;-81
2021/12/24 00:56:43;;;;;;;25.67;17.40;;;9.10;99.90;;;;;;5036963;28;20343;-79
2021/12/24 00:59:09;;;;;;;24.33;17.50;;;9.00;99.90;;;;;;5037986;28;20193;-83
2021/12/24 01:01:37;;;;;;;26.23;18.10;;;9.10;99.90;;;;;;5040826;28;20197;-82
2021/12/24 01:04:07;;;;;;;27.00;19.03;;;9.10;99.90;;;;;;5040471;28;20201;-79
2021/12/24 01:06:35;;;;;;;23.40;18.23;;;9.20;99.90;;;;;;5039737;28;20646;-79
2021/12/24 01:09:05;;;;;;;26.00;18.30;;;9.20;99.90;;;;;;5036622;28;20189;-79
2021/12/24 01:11:33;;;;;;;27.63;17.70;;;9.20;99.90;;;;;;5040414;28;20158;-80
2021/12/24 01:14:00;;;;;;;26.07;17.50;;;9.20;99.90;;;;;;5039825;28;20177;-79
2021/12/24 01:16:47;;;;;;;25.63;18.33;;;9.20;99.90;;;;;;5040358;28;20201;-85
2021/12/24 01:19:26;;;;;;;25.90;16.50;;;9.40;99.90;;;;;;5039018;28;20205;-80
2021/12/24 01:24:43;;;;;;;28.33;18.63;;;9.30;99.90;;;;;;5037207;28;20153;-83
2021/12/24 01:37:49;;;;;;;26.27;18.43;;;9.40;99.90;;;;;;5040398;28;20162;-94
2021/12/24 01:38:33;;;;;;;29.60;17.77;;;9.60;99.90;;;;;;5038822;28;20295;-79
2021/12/24 01:43:33;;;;;;;24.83;18.30;;;9.40;99.90;;;;;;5054407;28;20186;-82
2021/12/24 01:46:03;;;;;;;24.97;17.60;;;9.50;99.90;;;;;;5058106;28;20169;-79
2021/12/24 01:51:53;;;;;;;25.70;18.80;;;9.40;99.90;;;;;;5040957;28;20168;-88
2021/12/24 01:54:32;;;;;;;23.80;18.97;;;9.50;99.90;;;;;;5042820;28;20161;-78
2021/12/24 01:56:58;;;;;;;24.60;18.63;;;9.50;99.90;;;;;;5039713;28;20197;-83
2021/12/24 01:59:24;;;;;;;26.13;18.87;;;9.50;99.90;;;;;;5041146;28;20185;-78
2021/12/24 02:01:50;;;;;;;27.97;18.90;;;9.40;99.90;;;;;;5042182;28;20727;-79
2021/12/24 02:04:35;;;;;;;27.27;19.13;;;9.40;99.90;;;;;;5045211;28;20233;-77
2021/12/24 02:07:12;;;;;;;27.97;19.57;;;9.50;99.90;;;;;;5053718;28;20164;-79
2021/12/24 02:09:37;;;;;;;26.23;19.63;;;9.50;99.90;;;;;;5055060;28;20178;-82
2021/12/24 02:12:09;;;;;;;25.33;20.07;;;9.50;99.90;;;;;;5055092;28;20196;-78
2021/12/24 02:14:37;;;;;;;28.07;19.90;;;9.50;99.90;;;;;;5038011;28;20688;-80
2021/12/24 02:28:45;;;;;;;29.73;19.43;;;9.60;99.90;;;;;;5047455;28;20173;-94
2021/12/24 02:31:21;;;;;;;28.20;19.63;;;9.50;99.90;;;;;;5043852;28;20162;-80
2021/12/24 02:33:53;;;;;;;31.20;19.50;;;9.40;99.90;;;;;;5043714;28;20165;-80
2021/12/24 02:36:21;;;;;;;27.73;19.37;;;9.50;99.90;;;;;;5041137;28;20213;-80
2021/12/24 02:38:50;;;;;;;29.23;20.33;;;9.50;99.90;;;;;;5042496;28;20188;-83
2021/12/24 02:41:31;;;;;;;30.77;20.43;;;9.50;99.90;;;;;;5043485;28;20173;-83
2021/12/24 02:44:08;;;;;;;29.90;19.47;;;9.40;99.90;;;;;;5048395;28;20183;-84
2021/12/24 02:46:53;;;;;;;29.77;19.93;;;9.40;99.90;;;;;;5069534;28;20146;-80
2021/12/24 02:53:56;;;;;;;28.13;19.03;;;9.40;99.90;;;;;;5059273;28;20169;-87
2021/12/24 02:54:56;;;;;;;27.40;18.37;;;9.50;99.90;;;;;;5046731;28;20233;-80
2021/12/24 02:57:27;;;;;;;26.63;18.50;;;9.40;99.90;;;;;;5046316;28;20492;-80
2021/12/24 03:00:26;;;;;;;27.27;19.10;;;9.50;99.90;;;;;;5061192;28;20162;-79
2021/12/24 03:02:54;;;;;;;29.70;18.63;;;9.50;99.90;;;;;;5031138;28;20601;-79
2021/12/24 03:05:22;;;;;;;36.10;19.63;;;9.70;99.90;;;;;;5042789;28;20180;-80
2021/12/24 03:07:48;;;;;;;29.73;19.43;;;9.70;99.90;;;;;;5043813;28;20158;-80
2021/12/24 03:10:21;;;;;;;29.77;18.47;;;9.70;99.90;;;;;;5043379;28;20162;-80
2021/12/24 03:12:56;;;;;;;27.60;18.83;;;9.70;99.90;;;;;;5043915;28;20162;-78
2021/12/24 03:15:47;;;;;;;30.90;19.00;;;9.70;99.90;;;;;;5048907;28;20204;-80
2021/12/24 03:18:24;;;;;;;29.30;18.90;;;9.70;99.90;;;;;;5060030;28;20158;-79
2021/12/24 03:21:00;;;;;;;29.80;18.77;;;9.70;99.90;;;;;;5046210;28;20237;-80
2021/12/24 03:23:45;;;;;;;29.70;18.70;;;9.60;99.90;;;;;;5043322;28;20534;-84
2021/12/24 03:26:17;;;;;;;25.73;17.07;;;9.70;99.90;;;;;;5050728;28;20288;-77
2021/12/24 03:28:45;;;;;;;36.47;18.67;;;9.70;99.90;;;;;;5054589;28;20173;-82
2021/12/24 03:31:11;;;;;;;29.00;17.90;;;9.60;99.90;;;;;;5049700;28;20166;-83
2021/12/24 03:33:57;;;;;;;33.63;19.70;;;9.60;99.90;;;;;;5045076;28;20184;-79
2021/12/24 03:36:46;;;;;;;29.77;17.53;;;9.70;99.90;;;;;;5038770;28;20209;-81
2021/12/24 03:39:15;;;;;;;31.83;18.90;;;9.70;99.90;;;;;;5040243;28;20158;-81
2021/12/24 03:41:58;;;;;;;29.13;18.07;;;9.90;99.90;;;;;;5041374;28;20193;-83
2021/12/24 03:44:32;;;;;;;29.60;18.80;;;9.80;99.90;;;;;;5057916;28;20178;-92
2021/12/24 03:47:07;;;;;;;31.40;18.30;;;9.80;99.90;;;;;;5039759;28;20173;-85
2021/12/24 03:52:33;;;;;;;29.67;18.37;;;9.90;99.90;;;;;;5053569;28;20178;-82
2021/12/24 03:54:58;;;;;;;30.60;18.47;;;9.90;99.90;;;;;;5057681;28;20614;-89
2021/12/24 03:57:40;;;;;;;30.67;19.97;;;9.80;99.90;;;;;;5073320;28;20153;-79
2021/12/24 04:00:16;;;;;;;28.13;18.80;;;9.80;99.90;;;;;;5059171;28;20233;-81
2021/12/24 04:02:42;;;;;;;31.30;18.90;;;9.90;99.90;;;;;;5053316;28;20174;-80
2021/12/24 04:05:16;;;;;;;34.70;18.90;;;9.80;99.90;;;;;;5056818;28;20166;-85
2021/12/24 04:07:45;;;;;;;28.53;18.37;;;10.00;99.90;;;;;;5046601;28;20166;-79
2021/12/24 04:12:52;;;;;;;33.93;19.33;;;9.90;99.90;;;;;;5042686;28;20172;-79
2021/12/24 04:16:09;;;;;;;31.30;19.47;;;9.90;99.90;;;;;;5046083;28;20197;-79
2021/12/24 04:26:35;;;;;;;26.17;18.60;;;9.80;99.90;;;;;;5036845;28;20223;-82
2021/12/24 04:29:02;;;;;;;30.50;19.90;;;9.80;99.90;;;;;;5036439;28;20174;-81
2021/12/24 04:31:38;;;;;;;33.33;21.50;;;9.90;99.90;;;;;;5037450;28;20177;-84
2021/12/24 04:34:05;;;;;;;30.83;19.50;;;9.80;99.90;;;;;;5036930;28;20166;-85
2021/12/24 05:03:38;;;;;;;35.63;20.23;;;9.70;99.90;;;;;;5044796;28;20668;-78
2021/12/24 05:08:55;;;;;;;32.83;20.27;;;9.80;99.90;;;;;;5044185;28;20261;-79
2021/12/24 05:11:24;;;;;;;35.13;20.80;;;9.70;99.90;;;;;;5042497;28;20566;-85
2021/12/24 05:13:54;;;;;;;33.93;20.93;;;9.70;99.90;;;;;;5038439;28;20200;-89
2021/12/24 05:16:27;;;;;;;36.40;20.63;;;9.70;99.90;;;;;;5036305;28;20236;-87
2021/12/24 05:21:35;;;;;;;35.57;20.07;;;9.60;99.90;;;;;;5052655;28;20177;-82
2021/12/24 05:24:07;;;;;;;32.50;20.03;;;9.70;99.90;;;;;;5053597;28;20169;-79
2021/12/24 05:26:35;;;;;;;34.43;20.03;;;9.70;99.90;;;;;;5054211;28;20207;-78
2021/12/24 05:29:04;;;;;;;35.17;19.70;;;9.70;99.90;;;;;;5041038;28;20166;-80
2021/12/24 05:31:44;;;;;;;34.93;20.93;;;9.70;99.90;;;;;;5041452;28;20182;-80
2021/12/24 05:37:32;;;;;;;32.30;20.00;;;9.70;99.90;;;;;;5040580;28;20232;-80
2021/12/24 05:43:34;;;;;;;33.00;20.90;;;9.70;99.90;;;;;;5041139;28;20165;-80
2021/12/24 05:46:02;;;;;;;34.17;19.33;;;9.80;99.90;;;;;;5036414;28;20546;-84
2021/12/24 05:48:28;;;;;;;36.00;20.93;;;9.60;99.90;;;;;;5037975;28;20208;-83
2021/12/24 05:50:54;;;;;;;33.60;19.77;;;9.80;99.90;;;;;;5057857;28;20186;-83
2021/12/24 05:53:22;;;;;;;35.67;21.27;;;9.80;99.90;;;;;;5065244;28;20182;-79
2021/12/24 05:55:51;;;;;;;42.10;20.47;;;9.70;99.90;;;;;;5047173;28;20232;-84
2021/12/24 05:58:20;;;;;;;33.67;21.37;;;9.70;99.90;;;;;;5057507;28;20181;-81
2021/12/24 06:00:48;;;;;;;27.80;20.33;;;9.70;99.90;;;;;;5052274;28;20259;-83
2021/12/24 06:03:17;;;;;;;33.37;21.13;;;9.70;99.90;;;;;;5043609;28;20170;-83
2021/12/24 06:05:44;;;;;;;36.63;21.30;;;9.60;99.90;;;;;;5044106;28;20183;-92
2021/12/24 06:08:16;;;;;;;33.03;19.93;;;9.60;99.90;;;;;;5055287;28;20173;-84
2021/12/24 06:10:44;;;;;;;35.80;21.20;;;9.70;99.90;;;;;;5058147;28;20173;-87
2021/12/24 06:13:14;;;;;;;34.00;21.50;;;9.60;99.90;;;;;;5053011;28;20172;-90
2021/12/24 06:15:44;;;;;;;36.33;20.30;;;9.70;99.90;;;;;;5077021;28;20201;-79
2021/12/24 06:18:27;;;;;;;30.87;20.97;;;9.60;99.90;;;;;;5049560;28;20189;-80
2021/12/24 06:21:06;;;;;;;35.90;20.97;;;9.70;99.90;;;;;;5050748;28;20153;-96
2021/12/24 06:23:40;;;;;;;39.97;21.90;;;9.80;99.90;;;;;;5058682;28;20168;-83
2021/12/24 06:26:08;;;;;;;31.50;20.57;;;9.90;99.90;;;;;;5044006;28;20146;-80
2021/12/24 06:28:35;;;;;;;37.20;21.90;;;9.80;99.90;;;;;;5041932;28;20201;-83
2021/12/24 06:31:02;;;;;;;34.73;20.10;;;9.70;99.90;;;;;;5042253;28;20169;-80
2021/12/24 06:33:30;;;;;;;32.30;20.47;;;9.90;99.90;;;;;;5058208;28;20216;-86
2021/12/24 06:35:57;;;;;;;37.83;21.70;;;9.80;99.90;;;;;;5043054;28;20220;-89
2021/12/24 06:38:25;;;;;;;32.87;19.90;;;9.90;99.90;;;;;;5043192;28;20201;-89
2021/12/24 06:40:51;;;;;;;35.40;20.10;;;9.70;99.90;;;;;;5042792;28;20178;-87
2021/12/24 06:43:19;;;;;;;32.07;17.93;;;9.70;99.90;;;;;;5043756;28;20172;-89
2021/12/24 06:45:59;;;;;;;32.10;18.33;;;9.60;99.90;;;;;;5043761;28;20182;-90
2021/12/24 06:48:26;;;;;;;29.10;16.80;;;9.60;99.90;;;;;;5045893;28;20181;-87
2021/12/24 06:50:52;;;;;;;31.37;17.00;;;9.50;99.90;;;;;;5045381;28;20574;-87
2021/12/24 06:53:18;;;;;;;27.37;16.20;;;9.60;99.90;;;;;;5044430;28;20177;-87
2021/12/24 06:55:44;;;;;;;29.13;17.10;;;9.60;99.90;;;;;;5060738;28;20221;-96
2021/12/24 06:58:09;;;;;;;27.27;16.27;;;9.70;99.90;;;;;;5043156;28;20190;-93
2021/12/24 07:00:36;;;;;;;25.17;16.30;;;9.70;99.90;;;;;;5042130;28;20292;-86
2021/12/24 07:03:01;;;;;;;24.83;16.50;;;9.60;99.90;;;;;;5045415;28;20169;-80
2021/12/24 07:05:29;;;;;;;28.97;17.23;;;9.70;99.90;;;;;;5052270;28;20220;-79
2021/12/24 07:07:58;;;;;;;24.67;15.37;;;9.50;99.90;;;;;;5048379;28;20173;-79
2021/12/24 07:10:42;;;;;;;28.17;17.03;;;9.50;99.90;;;;;;5046863;28;20158;-78
2021/12/24 07:16:30;;;;;;;27.07;15.53;;;9.40;99.90;;;;;;5049230;28;20716;-79
2021/12/24 07:18:56;;;;;;;24.17;15.63;;;9.30;99.90;;;;;;5049386;28;20166;-78
2021/12/24 07:21:28;;;;;;;26.67;16.57;;;9.30;99.90;;;;;;5046774;28;20227;-79
2021/12/24 07:23:57;;;;;;;26.00;15.90;;;9.20;99.90;;;;;;5040396;28;20169;-80
2021/12/24 07:26:26;;;;;;;24.57;15.80;;;9.40;99.90;;;;;;5046171;28;20176;-78
2021/12/24 07:29:02;;;;;;;25.17;15.57;;;9.20;99.90;;;;;;5047184;28;20184;-89
2021/12/24 07:31:28;;;;;;;26.73;15.57;;;9.20;99.90;;;;;;5044365;28;20169;-79
2021/12/24 07:34:04;;;;;;;28.30;15.20;;;9.20;99.90;;;;;;5039078;28;20174;-84
2021/12/24 07:36:30;;;;;;;25.87;16.13;;;9.40;99.90;;;;;;5052896;28;20203;-83
2021/12/24 07:38:57;;;;;;;22.53;16.07;;;9.60;99.90;;;;;;5060451;28;20232;-85
2021/12/24 07:41:25;;;;;;;32.20;15.73;;;9.40;99.90;;;;;;5045679;28;20192;-79
2021/12/24 07:43:51;;;;;;;26.03;16.10;;;9.50;99.90;;;;;;5042986;28;20169;-79
2021/12/24 07:46:22;;;;;;;21.73;15.27;;;9.50;99.90;;;;;;5036655;28;20191;-85
2021/12/24 07:49:30;;;;;;;22.23;15.77;;;9.50;99.90;;;;;;5037698;28;20165;-82
2021/12/24 07:54:38;;;;;;;24.40;15.60;;;9.50;99.90;;;;;;5038589;28;20252;-81
2021/12/24 07:57:09;;;;;;;25.43;15.97;;;9.40;99.90;;;;;;5040846;28;20685;-90
2021/12/24 07:59:39;;;;;;;21.00;14.27;;;9.30;99.90;;;;;;5057091;28;20178;-87
2021/12/24 08:02:15;;;;;;;26.53;15.93;;;9.20;99.90;;;;;;5075131;28;20249;-85
2021/12/24 08:04:42;;;;;;;27.13;16.33;;;9.10;99.90;;;;;;5058468;28;20185;-80
2021/12/24 08:07:08;;;;;;;23.53;16.07;;;9.10;99.90;;;;;;5055360;28;20185;-82
2021/12/24 08:09:38;;;;;;;26.70;16.13;;;9.10;99.90;;;;;;5071069;28;20177;-90
2021/12/24 08:12:39;;;;;;;25.47;16.00;;;9.10;99.90;;;;;;5042045;28;20166;-91
2021/12/24 08:15:11;;;;;;;23.03;16.23;;;9.20;99.90;;;;;;5046007;28;20165;-84
2021/12/24 08:17:43;;;;;;;28.20;16.53;;;9.10;99.90;;;;;;5048717;28;20162;-92
2021/12/24 08:20:12;;;;;;;27.33;17.20;;;9.10;99.90;;;;;;5064759;28;20169;-83
2021/12/24 08:22:38;;;;;;;25.63;16.90;;;9.20;99.90;;;;;;5075342;28;20166;-82
2021/12/24 08:25:08;;;;;;;21.57;15.67;;;9.30;99.90;;;;;;5053181;28;20177;-87
2021/12/24 08:27:41;;;;;;;26.83;16.23;;;9.30;99.90;;;;;;5062504;28;20502;-80
2021/12/24 08:30:41;;;;;;;27.73;16.10;;;9.30;99.90;;;;;;5039044;28;20177;-84
2021/12/24 08:33:10;;;;;;;27.57;16.93;;;9.20;99.90;;;;;;5036269;28;20177;-80
2021/12/24 08:35:36;;;;;;;25.23;16.60;;;9.10;99.90;;;;;;5034851;28;20194;-80
2021/12/24 08:38:03;;;;;;;28.70;16.93;;;9.20;99.90;;;;;;5036074;28;20189;-80
2021/12/24 08:40:29;;;;;;;26.50;17.37;;;9.30;99.90;;;;;;5035929;28;20173;-81
2021/12/24 08:42:54;;;;;;;25.73;16.93;;;9.20;99.90;;;;;;5049847;28;20180;-82
2021/12/24 08:45:20;;;;;;;28.50;17.67;;;9.10;99.90;;;;;;5073464;28;20213;-82
2021/12/24 08:47:49;;;;;;;27.03;15.83;;;9.10;99.90;;;;;;5062872;28;20170;-80
2021/12/24 08:50:17;;;;;;;26.87;18.40;;;9.10;99.90;;;;;;5055713;28;20170;-81
2021/12/24 08:52:49;;;;;;;29.33;17.60;;;9.10;99.90;;;;;;5037991;28;20186;-81
2021/12/24 08:55:18;;;;;;;27.07;18.63;;;9.10;99.90;;;;;;5016661;28;20280;-82
2021/12/24 08:57:44;;;;;;;27.10;17.40;;;9.20;99.90;;;;;;5019430;28;20171;-80
2021/12/24 09:00:13;;;;;;;33.13;20.37;;;9.30;99.90;;;;;;5032315;28;20242;-82
2021/12/24 09:02:39;;;;;;;36.57;20.53;;;9.10;99.90;;;;;;5032531;28;20698;-82
2021/12/24 09:05:08;;;;;;;35.67;20.13;;;9.20;99.90;;;;;;5034446;28;20209;-79
2021/12/24 09:07:35;;;;;;;34.40;20.77;;;9.20;99.90;;;;;;5034727;28;20188;-82
2021/12/24 09:10:01;;;;;;;34.80;19.93;;;9.20;99.90;;;;;;5018721;28;20185;-81
2021/12/24 09:12:27;;;;;;;39.70;22.13;;;9.30;99.90;;;;;;5015687;28;20623;-81
2021/12/24 09:14:54;;;;;;;34.13;21.77;;;9.30;99.90;;;;;;5022043;28;20245;-81
2021/12/24 09:17:28;;;;;;;37.17;21.43;;;9.20;99.90;;;;;;5015670;28;20225;-80
2021/12/24 09:20:21;;;;;;;36.50;20.67;;;9.20;99.90;;;;;;5016129;28;20641;-81
2021/12/24 09:22:48;;;;;;;40.03;23.43;;;9.30;99.90;;;;;;5015229;28;20173;-83
2021/12/24 09:25:14;;;;;;;42.23;21.43;;;9.50;99.90;;;;;;5023149;28;20167;-83
2021/12/24 09:27:43;;;;;;;32.83;19.97;;;9.60;99.90;;;;;;5026016;28;20162;-88
2021/12/24 09:30:10;;;;;;;39.73;21.73;;;9.50;99.90;;;;;;5025433;28;20212;-90
2021/12/24 09:32:39;;;;;;;34.57;20.93;;;9.50;99.90;;;;;;5019010;28;20167;-82
2021/12/24 09:35:07;;;;;;;37.90;20.73;;;9.50;99.90;;;;;;5019130;28;20175;-81
2021/12/24 09:37:32;;;;;;;34.87;19.73;;;9.60;99.90;;;;;;5015786;28;20186;-81
2021/12/24 09:40:10;;;;;;;32.63;19.03;;;9.60;99.90;;;;;;5015431;28;20552;-82
2021/12/24 09:42:36;;;;;;;33.17;18.63;;;9.40;99.90;;;;;;5015534;28;20166;-82
2021/12/24 09:45:05;;;;;;;30.67;18.47;;;9.50;99.90;;;;;;5014699;28;20193;-83
2021/12/24 09:47:33;;;;;;;28.87;18.73;;;9.60;99.90;;;;;;5014036;28;20179;-85
2021/12/24 09:50:00;;;;;;;27.77;18.17;;;9.60;99.90;;;;;;5014022;28;20197;-80
2021/12/24 09:52:26;;;;;;;26.80;18.67;;;9.50;99.90;;;;;;5014129;28;20220;-81
2021/12/24 09:55:06;;;;;;;28.10;18.60;;;9.50;99.90;;;;;;5047206;28;20182;-82
2021/12/24 09:57:32;;;;;;;28.27;17.63;;;9.50;99.90;;;;;;5015684;28;20645;-80
2021/12/24 10:00:12;;;;;;;28.47;18.07;;;9.50;99.90;;;;;;5022050;28;20201;-81
2021/12/24 10:02:45;;;;;;;28.17;17.37;;;9.50;99.90;;;;;;5034650;28;20169;-81
2021/12/24 10:05:30;;;;;;;27.90;17.93;;;9.40;99.90;;;;;;5032984;28;20245;-81
2021/12/24 10:08:23;;;;;;;28.97;17.70;;;9.50;99.90;;;;;;5033728;28;20610;-81
2021/12/24 10:10:52;;;;;;;22.53;15.90;;;9.40;99.90;;;;;;5031658;28;20190;-81
2021/12/24 10:13:28;;;;;;;27.03;15.37;;;9.50;99.90;;;;;;5035820;28;20231;-81
2021/12/24 10:16:25;;;;;;;23.83;16.00;;;9.50;99.90;;;;;;5040149;28;20209;-89
2021/12/24 10:18:53;;;;;;;27.23;16.33;;;9.50;99.90;;;;;;5040149;28;20176;-88
2021/12/24 10:21:28;;;;;;;26.90;16.30;;;9.50;99.90;;;;;;5039019;28;20650;-86
2021/12/24 10:24:01;;;;;;;25.57;14.93;;;9.50;99.90;;;;;;5037843;28;20177;-89
2021/12/24 10:26:29;;;;;;;27.50;14.93;;;9.50;99.90;;;;;;5038831;28;20178;-87
2021/12/24 10:29:07;;;;;;;25.80;14.50;;;9.60;99.90;;;;;;5038833;28;20181;-87
2021/12/24 10:31:39;;;;;;;24.97;15.07;;;9.50;99.90;;;;;;5042699;28;20177;-87
2021/12/24 10:34:19;;;;;;;25.77;14.17;;;9.60;99.90;;;;;;5038844;28;20235;-84
2021/12/24 10:36:55;;;;;;;21.23;13.10;;;9.50;99.90;;;;;;5039859;28;20281;-88
2021/12/24 10:39:38;;;;;;;26.03;13.60;;;9.60;99.90;;;;;;5039175;28;20192;-87
2021/12/24 10:42:17;;;;;;;24.27;14.10;;;9.60;99.90;;;;;;5042835;28;20173;-89
2021/12/24 10:44:46;;;;;;;20.33;12.50;;;9.60;99.90;;;;;;5044902;28;20225;-82
2021/12/24 10:47:26;;;;;;;20.57;12.80;;;9.60;99.90;;;;;;5043935;28;20589;-80
2021/12/24 10:50:11;;;;;;;22.23;12.67;;;9.50;99.90;;;;;;5041003;28;20260;-82
2021/12/24 10:53:00;;;;;;;23.07;13.43;;;9.60;99.90;;;;;;5039866;28;20258;-82
2021/12/24 10:55:43;;;;;;;22.53;11.80;;;9.70;99.90;;;;;;5023799;28;20307;-81
2021/12/24 10:58:19;;;;;;;18.90;12.13;;;9.90;99.90;;;;;;5024190;28;20202;-82
2021/12/24 11:00:56;;;;;;;25.10;13.47;;;10.00;99.90;;;;;;5026240;28;20242;-83
2021/12/24 11:03:26;;;;;;;20.63;11.70;;;9.90;99.90;;;;;;5041798;28;20212;-79
2021/12/24 11:06:02;;;;;;;19.87;12.10;;;9.80;99.90;;;;;;5053796;28;20210;-82
2021/12/24 11:08:28;;;;;;;18.50;11.67;;;9.90;99.90;;;;;;5055073;28;20212;-91
2021/12/24 11:10:56;;;;;;;20.73;12.03;;;10.20;99.90;;;;;;5047635;28;20503;-85
2021/12/24 11:16:45;;;;;;;19.97;11.93;;;10.30;99.90;;;;;;5041277;28;20216;-86
2021/12/24 11:19:12;;;;;;;21.00;11.07;;;10.10;99.90;;;;;;5041147;28;20638;-84
2021/12/24 11:21:39;;;;;;;17.03;11.60;;;10.10;99.90;;;;;;5041116;28;20169;-86
2021/12/24 11:24:05;;;;;;;24.97;13.03;;;10.20;99.90;;;;;;5058108;28;20154;-86
2021/12/24 11:26:39;;;;;;;23.93;12.27;;;10.10;99.90;;;;;;5059540;28;20200;-79
2021/12/24 11:29:06;;;;;;;24.33;12.57;;;10.10;99.90;;;;;;5057519;28;20166;-81
2021/12/24 11:32:01;;;;;;;19.10;12.10;;;10.00;99.90;;;;;;5051169;28;20170;-81
2021/12/24 11:34:30;;;;;;;21.23;11.83;;;10.10;99.90;;;;;;5053236;28;20173;-91
2021/12/24 11:37:18;;;;;;;16.53;11.17;;;10.00;99.90;;;;;;5061332;28;20213;-90
2021/12/24 11:39:51;;;;;;;18.23;13.00;;;10.00;99.90;;;;;;5040263;28;20248;-93
2021/12/24 11:42:18;;;;;;;18.57;11.60;;;10.10;99.90;;;;;;5058256;28;20162;-89
2021/12/24 11:44:44;;;;;;;20.10;11.50;;;10.10;99.90;;;;;;5073405;28;20190;-82
2021/12/24 11:47:10;;;;;;;19.10;11.57;;;10.20;99.90;;;;;;5053116;28;20178;-81
2021/12/24 11:49:39;;;;;;;20.03;12.53;;;10.20;99.90;;;;;;5051185;28;20178;-86
2021/12/24 11:52:13;;;;;;;20.47;11.37;;;10.40;99.90;;;;;;5045956;28;20177;-89
2021/12/24 11:55:17;;;;;;;19.47;12.90;;;10.40;99.90;;;;;;5042808;28;20184;-85
2021/12/24 11:58:08;;;;;;;20.53;13.07;;;10.30;99.90;;;;;;5045247;28;20169;-89
2021/12/24 12:00:42;;;;;;;17.43;11.90;;;10.40;99.90;;;;;;5046452;28;20193;-88
2021/12/24 12:03:10;;;;;;;19.10;12.53;;;10.30;99.90;;;;;;5048165;28;20181;-88
2021/12/24 12:05:41;;;;;;;20.97;11.47;;;10.30;99.90;;;;;;5047712;28;20169;-87
2021/12/24 12:08:27;;;;;;;21.07;12.30;;;10.30;99.90;;;;;;5045525;28;20204;-91
2021/12/24 12:11:24;;;;;;;21.87;12.87;;;10.30;99.90;;;;;;5042982;28;20193;-92
2021/12/24 12:13:51;;;;;;;19.83;12.73;;;10.40;99.90;;;;;;5044562;28;20157;-92
2021/12/24 12:16:22;;;;;;;17.93;12.83;;;10.50;99.90;;;;;;5046328;28;20201;-93
2021/12/24 12:19:21;;;;;;;17.93;12.10;;;10.60;99.90;;;;;;5045236;28;20170;-91
2021/12/24 12:22:12;;;;;;;18.73;12.53;;;10.50;99.90;;;;;;5045304;28;20193;-91
2021/12/24 12:25:00;;;;;;;18.73;13.17;;;10.60;99.90;;;;;;5046822;28;20161;-92
2021/12/24 12:27:45;;;;;;;20.07;13.53;;;10.50;99.90;;;;;;5045969;28;20170;-90
2021/12/24 12:30:20;;;;;;;19.73;13.30;;;10.50;99.90;;;;;;5041666;28;20178;-83
2021/12/24 12:33:13;;;;;;;19.60;13.80;;;10.50;99.90;;;;;;5043828;28;20172;-91
2021/12/24 12:35:59;;;;;;;20.33;13.07;;;10.50;99.90;;;;;;5041568;28;20637;-87
2021/12/24 12:38:33;;;;;;;21.13;13.63;;;10.60;99.90;;;;;;5048477;28;20204;-81
2021/12/24 12:41:39;;;;;;;17.27;13.23;;;10.50;99.90;;;;;;5049316;28;20170;-89
2021/12/24 12:44:15;;;;;;;18.60;12.90;;;10.50;99.90;;;;;;5044204;28;20173;-92
2021/12/24 12:46:43;;;;;;;18.53;13.40;;;10.40;99.90;;;;;;5056373;28;20237;-89
2021/12/24 12:49:16;;;;;;;21.47;14.63;;;10.40;99.90;;;;;;5043516;28;20316;-88
2021/12/24 12:51:58;;;;;;;20.90;13.93;;;10.30;99.90;;;;;;5060274;28;20182;-88
2021/12/24 12:54:47;;;;;;;20.80;14.50;;;10.30;99.90;;;;;;5044051;28;20165;-85
2021/12/24 12:57:27;;;;;;;21.63;14.47;;;10.30;99.90;;;;;;5056838;28;20201;-87
2021/12/24 13:00:08;;;;;;;22.23;14.03;;;10.40;99.90;;;;;;5039460;28;20174;-88
2021/12/24 13:03:07;;;;;;;23.53;14.17;;;10.40;99.90;;;;;;5045080;28;20273;-89
2021/12/24 13:05:42;;;;;;;20.40;14.23;;;10.50;99.90;;;;;;5044597;28;20192;-82
2021/12/24 13:08:23;;;;;;;22.97;14.37;;;10.60;99.90;;;;;;5049201;28;20173;-90
2021/12/24 13:11:07;;;;;;;19.30;13.60;;;10.60;99.90;;;;;;5047498;28;20402;-83
2021/12/24 13:13:52;;;;;;;23.43;13.10;;;10.60;99.90;;;;;;5050779;28;20182;-80
2021/12/24 13:16:21;;;;;;;18.40;13.87;;;10.70;99.90;;;;;;5063065;28;20197;-85
2021/12/24 13:18:58;;;;;;;20.10;13.43;;;10.90;99.90;;;;;;5048050;28;20188;-85
2021/12/24 13:24:14;;;;;;;18.93;13.77;;;10.80;99.90;;;;;;5057038;28;20184;-88
2021/12/24 13:26:43;;;;;;;21.43;14.53;;;10.60;99.90;;;;;;5046946;28;20177;-84
2021/12/24 13:29:17;;;;;;;21.13;13.83;;;10.80;99.90;;;;;;5040876;28;20176;-88
2021/12/24 13:31:53;;;;;;;17.83;13.97;;;10.80;99.90;;;;;;5048658;28;20213;-86
2021/12/24 13:34:22;;;;;;;20.37;13.30;;;10.80;99.90;;;;;;5047849;28;20173;-88
2021/12/24 13:36:48;;;;;;;19.30;14.13;;;10.80;99.90;;;;;;5047964;28;20201;-81
2021/12/24 13:39:21;;;;;;;17.93;14.07;;;10.70;99.90;;;;;;5046565;28;20276;-93
2021/12/24 13:42:09;;;;;;;20.10;14.40;;;10.50;99.90;;;;;;5048899;28;20177;-83
2021/12/24 13:44:38;;;;;;;21.80;14.97;;;10.60;99.90;;;;;;5052397;28;20157;-90
2021/12/24 13:47:52;;;;;;;23.27;14.90;;;10.70;99.90;;;;;;5062819;28;20173;-90
2021/12/24 13:55:41;;;;;;;19.33;14.90;;;10.70;99.90;;;;;;5045726;28;20208;-91
2021/12/24 13:58:12;;;;;;;21.87;15.13;;;10.80;99.90;;;;;;5061134;28;20182;-88
2021/12/24 14:00:48;;;;;;;20.63;14.77;;;10.80;99.90;;;;;;5056826;28;20186;-89
2021/12/24 14:03:18;;;;;;;19.23;14.93;;;10.90;99.90;;;;;;5058480;28;20166;-90
2021/12/24 14:05:47;;;;;;;19.87;14.77;;;10.90;99.90;;;;;;5040701;28;20191;-91
2021/12/24 14:08:16;;;;;;;20.40;15.17;;;10.80;99.90;;;;;;5069439;28;20177;-82
2021/12/24 14:10:43;;;;;;;18.10;14.33;;;10.70;99.90;;;;;;5054253;28;20165;-91
2021/12/24 14:13:28;;;;;;;19.80;14.23;;;10.80;99.90;;;;;;5051959;28;20161;-80
2021/12/24 14:16:35;;;;;;;20.80;14.87;;;10.90;99.90;;;;;;5051957;28;20232;-80
2021/12/24 14:19:19;;;;;;;20.00;15.10;;;10.90;99.90;;;;;;5054269;28;20161;-80
2021/12/24 14:21:47;;;;;;;20.60;15.90;;;11.00;99.90;;;;;;5052193;28;20158;-92
2021/12/24 14:24:34;;;;;;;26.07;17.40;;;11.10;99.90;;;;;;5051370;28;20162;-80
2021/12/24 14:27:09;;;;;;;25.10;16.37;;;11.00;99.90;;;;;;5075059;28;20161;-79
2021/12/24 14:30:18;;;;;;;22.67;16.83;;;10.90;99.90;;;;;;5060229;28;20153;-85
2021/12/24 14:32:47;;;;;;;21.03;14.77;;;11.00;99.90;;;;;;5058580;28;20523;-84
2021/12/24 14:35:26;;;;;;;25.97;15.77;;;11.00;99.90;;;;;;5054978;28;20233;-85
2021/12/24 14:37:57;;;;;;;19.77;15.33;;;11.00;99.90;;;;;;5051100;28;20174;-89
2021/12/24 14:40:24;;;;;;;20.50;15.43;;;10.90;99.90;;;;;;5052930;28;20177;-81
2021/12/24 14:42:51;;;;;;;19.10;14.80;;;10.90;99.90;;;;;;5050217;28;20166;-87
2021/12/24 14:45:24;;;;;;;19.87;15.77;;;10.80;99.90;;;;;;5053808;28;20209;-79
2021/12/24 14:48:00;;;;;;;21.10;16.30;;;10.80;99.90;;;;;;5054060;28;20270;-80
2021/12/24 14:50:27;;;;;;;22.67;17.20;;;10.80;99.90;;;;;;5052197;28;20172;-79
2021/12/24 14:53:18;;;;;;;21.17;16.73;;;10.80;99.90;;;;;;5053301;28;20174;-81
2021/12/24 14:56:05;;;;;;;22.90;17.37;;;10.80;99.90;;;;;;5053732;28;20205;-82
2021/12/24 14:58:44;;;;;;;21.73;16.50;;;10.80;99.90;;;;;;5056583;28;20173;-84
2021/12/24 15:01:11;;;;;;;23.07;17.77;;;10.80;99.90;;;;;;5047389;28;20186;-93
2021/12/24 15:03:53;;;;;;;23.93;17.60;;;10.70;99.90;;;;;;5048023;28;20229;-93
2021/12/24 15:06:27;;;;;;;23.40;17.73;;;10.80;99.90;;;;;;5068582;28;20212;-85
2021/12/24 15:09:19;;;;;;;24.70;17.77;;;11.00;99.90;;;;;;5054389;28;20166;-87